Mount Storm, West Virginia
Current Conditions -  °F | °C
As of 9:15 PM on Saturday 22 Nov 2014 (Local Time) from KW99 Reporting Station
Broken Clouds Broken Clouds  
Wind Chill:   Ceiling: 10000
Heat Index:   Visibility: 10mi
Dew Point: -6°   Wind: 3mph
Humidity: 43%   Direction: 250°WSW
Pressure: 30.19"   Gusts: NA
Location:  39.28°N, 79.24°W
Report Text: KW99 230215Z AUTO 25003KT 10SM BKN100 06/M05 A3019 RMK AO2 T00621055
Loading
Personal Weather Stations






























Interactive Weather Map New forecast layout! Learn more

10-Day Weather Forecast

Advertisements
Track Severe Weather on mobile